Time;durP1;ratioP1;P1;durP2;ratioP2;P2;SDS_P1;SDS_P2;PMS_P1;PMS_P2;Temp;Humidity;BMP_temperature;BMP_pressure;BME280_temperature;BME280_humidity;BME280_pressure;Samples;Min_cycle;Max_cycle;Signal;HPM_P1;HPM_P2
2023/10/05 00:01:47;;;;;;;4.70;1.90;;;;;;;13.20;97.67;101641.69;5097230;28;20885;-70
2023/10/05 00:04:16;;;;;;;3.97;1.70;;;;;;;13.17;98.15;101640.34;5097487;28;20435;-70
2023/10/05 00:06:48;;;;;;;3.87;1.40;;;;;;;13.18;97.79;101644.69;5110971;22;20491;-70
2023/10/05 00:09:17;;;;;;;10.53;1.50;;;;;;;13.16;97.83;101641.44;5097099;28;20510;-70
2023/10/05 00:11:43;;;;;;;6.93;1.50;;;;;;;13.20;97.26;101637.03;5096632;28;20846;-70
2023/10/05 00:14:12;;;;;;;3.00;1.20;;;;;;;13.19;97.20;101635.41;5096975;28;20469;-70
2023/10/05 00:16:48;;;;;;;4.43;1.47;;;;;;;13.18;97.49;101643.88;5097228;28;20540;-70
2023/10/05 00:19:20;;;;;;;7.40;1.90;;;;;;;13.15;97.53;101637.13;5096880;28;20423;-70
2023/10/05 00:21:50;;;;;;;4.07;1.67;;;;;;;13.18;97.38;101641.97;5096590;28;20435;-70
2023/10/05 00:24:23;;;;;;;4.10;1.53;;;;;;;13.11;98.10;101645.03;5097436;28;20543;-70
2023/10/05 00:26:50;;;;;;;3.70;1.80;;;;;;;13.13;97.65;101652.91;5096627;28;20557;-70
2023/10/05 00:29:19;;;;;;;5.33;1.70;;;;;;;13.14;96.87;101635.47;5096346;28;20944;-70
2023/10/05 00:31:46;;;;;;;3.77;1.43;;;;;;;13.20;97.44;101630.81;5096286;28;20532;-70
2023/10/05 00:34:17;;;;;;;4.70;1.23;;;;;;;13.20;97.16;101628.06;5096596;28;20489;-70
2023/10/05 00:36:49;;;;;;;3.17;1.13;;;;;;;13.21;96.41;101627.78;5096160;28;20964;-70
2023/10/05 00:39:19;;;;;;;2.93;1.03;;;;;;;13.19;96.54;101619.09;5096550;28;20449;-70
2023/10/05 00:41:49;;;;;;;3.63;1.47;;;;;;;13.22;96.75;101625.88;5096391;28;20811;-70
2023/10/05 00:44:16;;;;;;;3.90;1.50;;;;;;;13.24;97.09;101620.97;5096439;28;20932;-70
2023/10/05 00:46:48;;;;;;;4.23;1.70;;;;;;;13.24;96.96;101613.63;5096442;28;20488;-70
2023/10/05 00:49:19;;;;;;;7.30;1.50;;;;;;;13.26;97.49;101614.13;5096353;28;20436;-70
2023/10/05 00:51:57;;;;;;;3.47;1.37;;;;;;;13.30;97.37;101622.53;5096285;28;20433;-70
2023/10/05 00:54:30;;;;;;;3.40;1.23;;;;;;;13.31;96.05;101616.78;5096251;28;20425;-70
2023/10/05 00:56:57;;;;;;;4.20;1.57;;;;;;;13.31;95.82;101616.78;5096505;28;20455;-70
2023/10/05 00:59:25;;;;;;;3.07;1.47;;;;;;;13.35;95.51;101612.38;5095173;28;20839;-70
2023/10/05 01:02:04;;;;;;;5.00;1.63;;;;;;;13.36;95.01;101610.44;5095717;28;20445;-70
2023/10/05 01:04:52;;;;;;;4.10;1.20;;;;;;;13.37;95.56;101612.09;5096026;28;20527;-70
2023/10/05 01:07:29;;;;;;;4.10;1.30;;;;;;;13.36;95.94;101605.81;5095501;28;20991;-70
2023/10/05 01:10:21;;;;;;;2.70;0.90;;;;;;;13.36;95.58;101597.66;5096248;28;20474;-70
2023/10/05 01:12:48;;;;;;;3.17;1.33;;;;;;;13.36;95.91;101597.66;5096162;28;20421;-70
2023/10/05 01:15:19;;;;;;;6.23;1.67;;;;;;;13.33;96.12;101581.94;5096150;28;20440;-70
2023/10/05 01:17:47;;;;;;;2.80;1.17;;;;;;;13.35;95.42;101585.16;5096103;28;20456;-70
2023/10/05 01:20:22;;;;;;;6.73;2.00;;;;;;;13.33;94.85;101576.50;5095676;28;20472;-70
2023/10/05 01:22:54;;;;;;;3.87;1.37;;;;;;;13.34;95.11;101572.66;5095771;28;20511;-70
2023/10/05 01:25:24;;;;;;;5.03;1.50;;;;;;;13.34;95.67;101569.13;5095574;28;20423;-70
2023/10/05 01:27:52;;;;;;;4.10;1.33;;;;;;;13.35;95.77;101570.75;5095488;28;20826;-70
2023/10/05 01:30:18;;;;;;;4.33;1.43;;;;;;;13.34;95.33;101550.88;5095768;28;20437;-70
2023/10/05 01:32:47;;;;;;;4.17;1.67;;;;;;;13.32;95.38;101555.78;5095431;28;20497;-70
2023/10/05 01:35:17;;;;;;;3.80;1.90;;;;;;;13.33;95.48;101554.72;5095193;28;20532;-70
2023/10/05 01:37:46;;;;;;;4.13;1.50;;;;;;;13.36;95.17;101556.03;5094983;28;20483;-69
2023/10/05 01:40:19;;;;;;;3.80;1.33;;;;;;;13.35;95.17;101560.66;5095330;28;20523;-71
2023/10/05 01:42:48;;;;;;;5.03;1.40;;;;;;;13.37;94.90;101555.75;5095311;28;20431;-72
2023/10/05 01:45:16;;;;;;;2.80;0.90;;;;;;;13.40;94.46;101556.25;5095182;28;20553;-71
2023/10/05 01:47:45;;;;;;;2.80;0.90;;;;;;;13.40;94.89;101561.69;5095134;28;20567;-70
2023/10/05 01:50:16;;;;;;;6.87;1.60;;;;;;;13.45;94.41;101548.00;5095096;28;20444;-70
2023/10/05 01:52:45;;;;;;;4.97;1.53;;;;;;;13.44;94.04;101547.19;5095220;28;20451;-70
2023/10/05 01:55:14;;;;;;;5.60;1.60;;;;;;;13.47;93.74;101559.41;5095014;28;20444;-70
2023/10/05 01:57:42;;;;;;;3.47;1.37;;;;;;;13.47;93.90;101553.97;5095208;28;20513;-70
2023/10/05 02:00:14;;;;;;;3.77;1.23;;;;;;;13.49;93.20;101547.09;5094854;28;20539;-70
2023/10/05 02:02:42;;;;;;;2.60;0.80;;;;;;;13.44;93.34;101539.03;5094838;28;20428;-70
2023/10/05 02:05:09;;;;;;;7.80;1.10;;;;;;;13.44;93.49;101538.22;5094843;28;20975;-70
2023/10/05 02:07:38;;;;;;;3.50;1.30;;;;;;;13.45;93.67;101548.00;5094221;28;20579;-70
2023/10/05 02:10:09;;;;;;;3.07;1.10;;;;;;;13.42;93.60;101541.25;5094706;28;20475;-70
2023/10/05 02:12:36;;;;;;;2.83;1.17;;;;;;;13.44;93.12;101544.47;5094394;28;20893;-70
2023/10/05 02:15:05;;;;;;;3.87;1.20;;;;;;;13.45;93.48;101548.00;5094577;28;20805;-70
2023/10/05 02:17:40;;;;;;;3.60;1.10;;;;;;;13.46;93.27;101547.72;5095149;28;20467;-70
2023/10/05 02:20:12;;;;;;;3.10;1.03;;;;;;;13.49;93.24;101533.50;5095010;28;20428;-70
2023/10/05 02:22:40;;;;;;;2.50;1.00;;;;;;;13.45;93.35;101529.75;5094206;28;20946;-70
2023/10/05 02:25:11;;;;;;;3.97;1.40;;;;;;;13.42;93.65;101524.13;5094163;28;20439;-70
2023/10/05 02:27:46;;;;;;;5.10;1.60;;;;;;;13.43;93.40;101531.16;5094307;28;20488;-70
2023/10/05 02:30:14;;;;;;;4.93;1.63;;;;;;;13.41;93.61;101522.47;5094571;28;20512;-70
2023/10/05 02:32:43;;;;;;;3.00;1.20;;;;;;;13.40;93.55;101518.16;5094929;28;20444;-70
2023/10/05 02:35:19;;;;;;;3.10;1.27;;;;;;;13.41;93.55;101519.75;5094691;28;20533;-70
2023/10/05 02:37:48;;;;;;;3.73;1.30;;;;;;;13.38;93.63;101513.81;5094495;28;20463;-70
2023/10/05 02:40:15;;;;;;;3.77;1.27;;;;;;;13.41;93.65;101506.94;5094012;28;20538;-70
2023/10/05 02:42:43;;;;;;;3.20;1.27;;;;;;;13.40;93.73;101504.53;5094318;28;20440;-70
2023/10/05 02:45:11;;;;;;;3.53;1.57;;;;;;;13.45;93.45;101505.25;5094501;28;20467;-69
2023/10/05 02:47:37;;;;;;;3.53;1.50;;;;;;;13.40;93.25;101502.63;5093951;28;20516;-70
2023/10/05 02:50:07;;;;;;;3.77;1.50;;;;;;;13.37;93.35;101500.50;5093769;28;20437;-71
2023/10/05 02:52:34;;;;;;;2.87;1.17;;;;;;;13.34;93.86;101503.81;5094467;28;20479;-70
2023/10/05 02:55:00;;;;;;;4.20;1.00;;;;;;;13.34;93.33;101503.81;5094186;28;20437;-70
2023/10/05 02:57:27;;;;;;;2.67;0.70;;;;;;;13.30;94.33;101506.31;5093823;28;20459;-70
2023/10/05 02:59:54;;;;;;;3.13;1.23;;;;;;;13.29;94.22;101499.28;5093605;28;20497;-70
2023/10/05 03:02:23;;;;;;;5.20;1.47;;;;;;;13.30;94.13;101495.44;5093917;28;20515;-71
2023/10/05 03:04:57;;;;;;;3.57;1.47;;;;;;;13.33;93.65;101491.31;5093414;28;21033;-71
2023/10/05 03:07:26;;;;;;;4.00;1.50;;;;;;;13.31;94.12;101494.31;5093924;28;20579;-71
2023/10/05 03:09:58;;;;;;;6.90;1.33;;;;;;;13.29;94.67;101491.09;5093765;28;20459;-70
2023/10/05 03:12:25;;;;;;;11.70;1.90;;;;;;;13.32;94.87;101482.31;5093657;28;20515;-70
2023/10/05 03:14:54;;;;;;;2.93;1.10;;;;;;;13.31;94.65;101486.16;5093713;28;20438;-70
2023/10/05 03:17:21;;;;;;;3.30;1.13;;;;;;;13.34;93.82;101485.56;5093596;28;20488;-70
2023/10/05 03:19:50;;;;;;;4.43;1.40;;;;;;;13.36;94.02;101472.47;5093739;28;20436;-71
2023/10/05 03:22:16;;;;;;;6.13;1.70;;;;;;;13.41;94.37;101481.66;5093650;28;20539;-71
2023/10/05 03:24:45;;;;;;;6.10;1.37;;;;;;;13.40;94.50;101474.59;5093377;28;20436;-70
2023/10/05 03:27:11;;;;;;;4.57;1.17;;;;;;;13.36;94.44;101475.19;5093453;28;20484;-71
2023/10/05 03:29:38;;;;;;;4.07;1.27;;;;;;;13.37;94.72;101473.31;5094033;28;20983;-71
2023/10/05 03:32:13;;;;;;;3.70;1.37;;;;;;;13.36;93.90;101469.75;5094074;28;20448;-71
2023/10/05 03:34:42;;;;;;;4.03;1.33;;;;;;;13.36;94.31;101468.94;5093495;28;20459;-70
2023/10/05 03:37:13;;;;;;;3.03;1.20;;;;;;;13.41;93.91;101465.31;5093351;28;20460;-70
2023/10/05 03:39:49;;;;;;;5.00;1.73;;;;;;;13.41;93.88;101465.31;5093511;28;20425;-70
2023/10/05 03:42:17;;;;;;;3.80;1.20;;;;;;;13.35;94.33;101468.13;5093817;28;20440;-70
2023/10/05 03:44:44;;;;;;;4.13;1.13;;;;;;;13.37;94.03;101473.31;5093774;28;20783;-70
2023/10/05 03:47:11;;;;;;;2.53;0.83;;;;;;;13.34;94.41;101469.25;5093273;28;20971;-70
2023/10/05 03:49:38;;;;;;;3.73;1.10;;;;;;;13.36;94.55;101471.66;5093088;28;20473;-70
2023/10/05 03:52:07;;;;;;;3.30;1.33;;;;;;;13.36;94.46;101469.75;5093416;28;20469;-70
2023/10/05 03:54:34;;;;;;;3.73;1.10;;;;;;;13.34;95.73;101468.44;5093364;28;20920;-70
2023/10/05 03:57:10;;;;;;;3.50;1.27;;;;;;;13.32;95.27;101466.00;5093816;28;20529;-70
2023/10/05 03:59:38;;;;;;;4.53;1.40;;;;;;;13.33;94.38;101454.03;5093292;28;20424;-70
2023/10/05 04:02:06;;;;;;;3.53;1.23;;;;;;;13.35;95.26;101459.16;5093320;28;20538;-70
2023/10/05 04:04:36;;;;;;;2.93;1.30;;;;;;;13.34;96.60;101447.47;5093557;28;20441;-70
2023/10/05 04:07:03;;;;;;;3.00;0.83;;;;;;;13.35;96.69;101459.97;5093086;28;20519;-70
2023/10/05 04:09:30;;;;;;;3.70;1.37;;;;;;;13.37;97.96;101446.88;5093575;28;20451;-68
2023/10/05 04:11:56;;;;;;;3.00;1.00;;;;;;;13.37;97.07;101456.97;5093165;28;20445;-69
2023/10/05 04:14:23;;;;;;;2.70;0.87;;;;;;;13.32;96.92;101451.59;5093094;28;20519;-69
2023/10/05 04:16:51;;;;;;;3.30;0.93;;;;;;;13.31;95.80;101447.25;5093438;28;20568;-69
2023/10/05 04:19:18;;;;;;;4.70;1.40;;;;;;;13.31;95.35;101453.50;5093313;28;20440;-71
2023/10/05 04:21:45;;;;;;;5.77;1.63;;;;;;;13.32;96.09;101437.97;5093177;28;20475;-76
2023/10/05 04:24:14;;;;;;;2.50;0.90;;;;;;;13.32;95.69;101433.34;5093002;28;21015;-69
2023/10/05 04:26:44;;;;;;;3.63;1.20;;;;;;;13.30;94.23;101446.47;5092883;28;20468;-69
2023/10/05 04:29:12;;;;;;;6.37;2.20;;;;;;;13.33;95.94;101440.44;5093102;28;20409;-69
2023/10/05 04:31:39;;;;;;;5.17;1.17;;;;;;;13.31;94.76;101437.19;5092675;28;20444;-69
2023/10/05 04:34:11;;;;;;;6.00;1.17;;;;;;;13.25;93.91;101432.94;5093404;28;20436;-69
2023/10/05 04:36:39;;;;;;;3.83;1.37;;;;;;;13.24;93.94;101431.34;5096214;28;21007;-69
2023/10/05 04:39:07;;;;;;;3.77;1.10;;;;;;;13.28;93.70;101437.81;5096429;28;20444;-69
2023/10/05 04:41:35;;;;;;;5.90;1.07;;;;;;;13.28;94.47;101429.63;5096414;28;20834;-69
2023/10/05 04:44:03;;;;;;;3.77;1.20;;;;;;;13.29;94.62;101425.81;5096487;28;20444;-69
2023/10/05 04:46:33;;;;;;;4.13;1.33;;;;;;;13.28;93.70;101421.47;5095959;28;20456;-69
2023/10/05 04:49:07;;;;;;;5.43;1.70;;;;;;;13.28;93.53;101413.31;5096199;28;20437;-69
2023/10/05 04:51:38;;;;;;;5.23;1.27;;;;;;;13.30;94.94;101421.16;5095944;28;20425;-69
2023/10/05 04:54:06;;;;;;;3.30;1.00;;;;;;;13.33;96.95;101417.84;5096287;28;20427;-69
2023/10/05 04:56:40;;;;;;;2.40;0.70;;;;;;;13.28;95.66;101410.59;5096102;28;20483;-69
2023/10/05 04:59:24;;;;;;;4.00;1.37;;;;;;;13.27;96.30;101410.88;5096456;28;20778;-69
2023/10/05 05:02:00;;;;;;;3.70;1.10;;;;;;;13.25;95.99;101408.44;5096579;28;20490;-71
2023/10/05 05:04:41;;;;;;;3.43;0.80;;;;;;;13.29;97.48;101408.66;5096094;28;20896;-70
2023/10/05 05:07:10;;;;;;;5.07;1.03;;;;;;;13.31;96.83;101412.69;5095383;28;20488;-69
2023/10/05 05:09:39;;;;;;;2.63;0.77;;;;;;;13.30;95.72;101411.09;5096496;28;20437;-72
2023/10/05 05:12:09;;;;;;;3.93;1.30;;;;;;;13.31;96.70;101401.81;5096218;28;20460;-73
2023/10/05 05:14:41;;;;;;;4.30;1.20;;;;;;;13.31;96.82;101404.53;5096341;28;20508;-71
2023/10/05 05:17:10;;;;;;;2.70;1.20;;;;;;;13.32;97.90;101395.25;5095927;28;20464;-72
2023/10/05 05:19:38;;;;;;;2.90;1.10;;;;;;;13.35;97.02;101407.47;5095601;28;20808;-71
2023/10/05 05:22:06;;;;;;;4.70;1.27;;;;;;;13.37;95.72;101403.34;5095247;28;20945;-71
2023/10/05 05:24:34;;;;;;;3.27;1.27;;;;;;;13.40;94.91;101404.66;5095647;28;20483;-73
2023/10/05 05:27:03;;;;;;;4.10;1.70;;;;;;;13.41;95.37;101408.97;5095591;28;20627;-71
2023/10/05 05:29:32;;;;;;;4.10;1.50;;;;;;;13.42;95.33;101407.91;5096207;28;20448;-70
2023/10/05 05:32:02;;;;;;;4.20;1.63;;;;;;;13.44;95.21;101399.41;5095183;28;20445;-70
2023/10/05 05:34:29;;;;;;;7.00;1.57;;;;;;;13.50;96.33;101395.47;5095180;28;20854;-70
2023/10/05 05:36:55;;;;;;;2.80;0.97;;;;;;;13.47;96.15;101398.81;5095321;28;20551;-71
2023/10/05 05:39:25;;;;;;;3.03;0.80;;;;;;;13.47;97.13;101394.19;5095325;28;20501;-70
2023/10/05 05:41:59;;;;;;;3.97;1.13;;;;;;;13.48;96.28;101392.28;5095321;28;20941;-70
2023/10/05 05:44:28;;;;;;;4.30;1.33;;;;;;;13.55;95.53;101403.59;5095124;28;20420;-71
2023/10/05 05:46:59;;;;;;;4.60;1.47;;;;;;;13.56;97.03;101394.31;5094838;28;20551;-71
2023/10/05 05:49:26;;;;;;;3.20;1.17;;;;;;;13.56;97.41;101400.56;5095662;28;20429;-70
2023/10/05 05:51:53;;;;;;;4.17;1.30;;;;;;;13.63;95.67;101397.41;5095281;28;20428;-69
2023/10/05 05:54:20;;;;;;;4.50;1.40;;;;;;;13.68;95.25;101402.78;5094777;28;20478;-70
2023/10/05 05:56:46;;;;;;;4.53;1.67;;;;;;;13.68;94.85;101397.34;5095220;28;20460;-71
2023/10/05 05:59:14;;;;;;;4.40;1.40;;;;;;;13.65;94.71;101392.50;5094937;28;20524;-70
2023/10/05 06:01:41;;;;;;;2.93;1.13;;;;;;;13.71;95.16;101395.91;5094630;28;20803;-70
2023/10/05 06:04:08;;;;;;;5.30;1.43;;;;;;;13.75;94.43;101389.56;5094564;28;20433;-73
2023/10/05 06:06:37;;;;;;;3.93;1.23;;;;;;;13.78;95.21;101394.41;5110418;22;20577;-68
2023/10/05 06:09:07;;;;;;;3.20;1.20;;;;;;;13.78;94.80;101391.69;5115411;28;20521;-68
2023/10/05 06:11:34;;;;;;;3.17;1.20;;;;;;;13.82;95.10;101402.78;5114861;28;20439;-69
2023/10/05 06:14:02;;;;;;;4.80;1.63;;;;;;;13.91;93.63;101405.63;5114925;28;20478;-67
2023/10/05 06:16:33;;;;;;;3.60;1.10;;;;;;;13.94;93.36;101407.72;5115481;28;20819;-69
2023/10/05 06:19:00;;;;;;;10.63;1.63;;;;;;;13.99;93.45;101402.16;5115130;28;20534;-69
2023/10/05 06:21:27;;;;;;;2.90;1.23;;;;;;;14.04;93.63;101407.53;5115168;28;20438;-69
2023/10/05 06:23:54;;;;;;;3.83;1.20;;;;;;;14.08;93.58;101406.63;5115222;28;20526;-68
2023/10/05 06:26:21;;;;;;;3.70;1.10;;;;;;;14.12;92.92;101390.44;5115068;28;20491;-69
2023/10/05 06:28:49;;;;;;;3.07;1.10;;;;;;;14.20;92.30;101397.09;5114826;28;20475;-69
2023/10/05 06:31:16;;;;;;;4.67;1.47;;;;;;;14.25;91.94;101394.25;5114720;28;20455;-68
2023/10/05 06:33:46;;;;;;;2.80;0.80;;;;;;;14.24;92.02;101396.19;5114414;28;20953;-69
2023/10/05 06:36:13;;;;;;;4.30;1.07;;;;;;;14.32;91.13;101400.91;5114753;28;20780;-68
2023/10/05 06:38:40;;;;;;;2.90;0.90;;;;;;;14.35;91.44;101404.97;5114611;28;20457;-68
2023/10/05 06:41:06;;;;;;;5.07;1.37;;;;;;;14.41;92.86;101401.00;5114860;28;20523;-69
2023/10/05 06:43:35;;;;;;;2.70;1.03;;;;;;;14.42;92.27;101397.16;5114892;28;20455;-68
2023/10/05 06:46:09;;;;;;;5.30;1.60;;;;;;;14.42;92.61;101402.59;5114406;28;20463;-68
2023/10/05 06:48:36;;;;;;;3.17;1.43;;;;;;;14.50;91.64;101398.38;5114434;28;20471;-68
2023/10/05 06:51:04;;;;;;;2.83;1.03;;;;;;;14.54;91.75;101396.66;5114630;28;20500;-68
2023/10/05 06:53:31;;;;;;;4.10;1.80;;;;;;;14.60;91.86;101400.88;5114709;28;20440;-68
2023/10/05 06:55:57;;;;;;;2.97;1.60;;;;;;;14.63;91.32;101401.06;5114064;28;20459;-68
2023/10/05 06:58:24;;;;;;;3.60;1.30;;;;;;;14.70;89.97;101402.53;5114314;28;20440;-68
2023/10/05 07:00:52;;;;;;;4.20;1.20;;;;;;;14.72;89.98;101398.41;5114077;28;20949;-69
2023/10/05 07:03:20;;;;;;;4.13;1.17;;;;;;;14.71;90.51;101399.53;5114163;28;20457;-68
2023/10/05 07:05:47;;;;;;;4.10;0.90;;;;;;;14.75;90.01;101400.53;5114101;28;20928;-68
2023/10/05 07:08:15;;;;;;;3.70;1.30;;;;;;;14.86;89.77;101409.25;5114209;28;20493;-68
2023/10/05 07:10:42;;;;;;;3.73;1.57;;;;;;;14.89;89.76;101404.00;5114078;28;20442;-68
2023/10/05 07:13:09;;;;;;;8.40;1.40;;;;;;;14.92;90.24;101413.50;5114049;28;20470;-68
2023/10/05 07:15:40;;;;;;;2.93;1.00;;;;;;;14.99;89.35;101416.56;5114375;28;20436;-69
2023/10/05 07:18:07;;;;;;;4.10;1.37;;;;;;;15.00;89.69;101411.91;5114734;28;20420;-67
2023/10/05 07:20:36;;;;;;;2.97;1.20;;;;;;;15.06;90.28;101422.41;5114344;28;20431;-69
2023/10/05 07:23:03;;;;;;;3.80;1.53;;;;;;;15.10;88.68;101422.59;5114223;28;20448;-69
2023/10/05 07:25:31;;;;;;;4.10;1.47;;;;;;;15.08;88.71;101433.00;5114012;28;20439;-71
2023/10/05 07:27:57;;;;;;;3.37;1.03;;;;;;;15.11;87.93;101432.41;5113804;28;20483;-70
2023/10/05 07:30:24;;;;;;;6.63;1.57;;;;;;;15.14;88.15;101431.78;5114087;28;20440;-70
2023/10/05 07:32:51;;;;;;;3.43;1.03;;;;;;;15.14;88.85;101440.78;5113790;28;20520;-70
2023/10/05 07:35:18;;;;;;;2.40;0.70;;;;;;;15.12;88.67;101453.09;5114280;28;20443;-71
2023/10/05 07:37:44;;;;;;;5.07;1.57;;;;;;;15.22;87.83;101450.13;5114083;28;20543;-71
2023/10/05 07:40:13;;;;;;;2.60;0.93;;;;;;;15.25;88.29;101452.22;5114655;28;20530;-69
2023/10/05 07:42:41;;;;;;;4.53;1.57;;;;;;;15.29;87.55;101466.88;5116494;28;20439;-70
2023/10/05 07:45:11;;;;;;;3.83;1.20;;;;;;;15.35;86.68;101453.91;5114197;28;20927;-70
2023/10/05 07:47:41;;;;;;;3.63;1.17;;;;;;;15.37;87.34;101466.13;5114889;28;20523;-68
2023/10/05 07:50:10;;;;;;;2.80;1.10;;;;;;;15.35;87.93;101460.16;5117731;28;20435;-70
2023/10/05 07:52:37;;;;;;;4.00;1.10;;;;;;;15.43;88.49;101471.47;5115322;28;20467;-70
2023/10/05 07:55:05;;;;;;;2.63;0.80;;;;;;;15.46;87.79;101465.38;5116174;28;20447;-70
2023/10/05 07:57:32;;;;;;;2.87;1.00;;;;;;;15.53;86.83;101466.53;5116093;28;20487;-69
2023/10/05 08:00:01;;;;;;;4.20;1.03;;;;;;;15.52;87.62;101475.03;5116137;28;20435;-69
2023/10/05 08:02:27;;;;;;;3.57;1.07;;;;;;;15.55;87.42;101466.25;5116784;28;20446;-71
2023/10/05 08:04:54;;;;;;;4.40;1.63;;;;;;;15.66;87.45;101475.78;5117153;28;20867;-69
2023/10/05 08:07:24;;;;;;;3.43;1.23;;;;;;;15.76;85.93;101481.00;5121925;28;20475;-68
2023/10/05 08:09:55;;;;;;;3.37;1.37;;;;;;;15.86;86.86;101469.00;5134402;28;20494;-69
2023/10/05 08:12:21;;;;;;;4.40;1.07;;;;;;;15.91;85.31;101476.25;5134891;28;20438;-69
2023/10/05 08:14:48;;;;;;;3.77;1.30;;;;;;;16.01;85.51;101482.22;5122871;28;20435;-70
2023/10/05 08:17:17;;;;;;;6.23;2.00;;;;;;;16.07;84.25;101477.41;5121277;28;20459;-68
2023/10/05 08:19:44;;;;;;;4.00;1.33;;;;;;;16.09;84.83;101483.38;5124401;28;20442;-69
2023/10/05 08:22:11;;;;;;;4.40;1.50;;;;;;;16.13;85.37;101489.84;5124031;28;20436;-69
2023/10/05 08:24:38;;;;;;;2.80;0.90;;;;;;;16.16;84.30;101481.00;5122043;28;20440;-68
2023/10/05 08:27:06;;;;;;;4.57;1.40;;;;;;;16.19;82.87;101483.09;5121923;28;20462;-69
2023/10/05 08:29:34;;;;;;;3.67;1.60;;;;;;;16.29;83.43;101488.28;5122155;28;20487;-69
2023/10/05 08:32:01;;;;;;;4.57;1.00;;;;;;;16.32;84.50;101482.16;5124763;28;20446;-69
2023/10/05 08:34:32;;;;;;;3.50;1.30;;;;;;;16.36;81.78;101474.94;5123318;28;20500;-69
2023/10/05 08:36:59;;;;;;;3.20;1.03;;;;;;;16.35;83.89;101484.28;5124012;28;20542;-70
2023/10/05 08:39:26;;;;;;;3.00;1.10;;;;;;;16.43;82.07;101493.63;5122186;28;20471;-69
2023/10/05 08:41:57;;;;;;;3.37;1.20;;;;;;;16.36;82.79;101480.41;5121739;28;20809;-70
2023/10/05 08:44:27;;;;;;;3.43;1.03;;;;;;;16.35;83.27;101472.53;5121544;28;20457;-69
2023/10/05 08:46:55;;;;;;;3.97;1.37;;;;;;;16.35;84.31;101481.53;5126038;28;20459;-69
2023/10/05 08:49:23;;;;;;;5.67;1.77;;;;;;;16.49;83.94;101475.94;5125638;28;20515;-69
2023/10/05 08:51:52;;;;;;;3.37;1.20;;;;;;;16.67;83.49;101486.91;5124898;28;20471;-70
2023/10/05 08:54:26;;;;;;;3.83;1.53;;;;;;;16.81;80.85;101480.19;5122333;28;20439;-70
2023/10/05 08:56:53;;;;;;;2.80;1.07;;;;;;;16.88;79.93;101483.25;5124283;28;20451;-69
2023/10/05 08:59:20;;;;;;;3.07;1.10;;;;;;;16.93;81.18;101476.81;5121052;28;20482;-69
2023/10/05 09:01:47;;;;;;;2.70;1.07;;;;;;;16.93;82.12;101474.06;5122328;28;20443;-69
2023/10/05 09:04:29;;;;;;;3.10;1.13;;;;;;;17.01;79.68;101480.69;5122213;28;20455;-70
2023/10/05 09:06:59;;;;;;;3.53;1.00;;;;;;;17.00;79.49;101490.00;5120933;28;20771;-69
2023/10/05 09:09:36;;;;;;;4.00;1.67;;;;;;;17.02;79.83;101477.63;5126828;28;20529;-70
2023/10/05 09:12:26;;;;;;;3.80;1.00;;;;;;;17.12;80.22;101481.97;5126855;28;20917;-70
2023/10/05 09:15:06;;;;;;;2.90;1.17;;;;;;;17.24;78.77;101489.53;5127946;28;20420;-70
2023/10/05 09:17:34;;;;;;;2.50;0.90;;;;;;;17.25;78.68;101480.97;5127258;28;20988;-69
2023/10/05 09:20:21;;;;;;;2.30;0.80;;;;;;;17.21;78.84;101488.22;5127732;28;20438;-70
2023/10/05 09:22:50;;;;;;;3.43;1.10;;;;;;;17.16;79.28;101488.41;5125703;28;20416;-69
2023/10/05 09:25:17;;;;;;;2.77;1.03;;;;;;;17.14;79.79;101485.19;5127762;28;20435;-70
2023/10/05 09:27:50;;;;;;;2.97;1.03;;;;;;;17.24;78.15;101482.13;5124443;28;20520;-70
2023/10/05 09:30:20;;;;;;;7.20;0.80;;;;;;;17.32;78.82;101481.31;5122167;28;20475;-69
2023/10/05 09:32:48;;;;;;;4.17;1.37;;;;;;;17.36;78.13;101476.78;5124132;28;20431;-69
2023/10/05 09:35:27;;;;;;;5.20;1.63;;;;;;;17.34;79.60;101500.94;5127050;28;20447;-69
2023/10/05 09:37:58;;;;;;;2.60;1.00;;;;;;;17.36;78.19;101495.97;5122206;28;20455;-69
2023/10/05 09:40:26;;;;;;;4.00;1.10;;;;;;;17.29;77.29;101509.31;5123306;28;20424;-70
2023/10/05 09:42:55;;;;;;;3.47;1.17;;;;;;;17.18;78.04;101507.22;5116349;28;20809;-68
2023/10/05 09:45:23;;;;;;;3.17;1.47;;;;;;;17.10;78.42;101508.88;5116029;28;20439;-67
2023/10/05 09:47:53;;;;;;;3.03;1.10;;;;;;;17.07;78.28;101496.63;5115765;28;20456;-68
2023/10/05 09:50:22;;;;;;;3.17;0.90;;;;;;;17.06;79.13;101502.41;5115686;28;20978;-68
2023/10/05 09:52:49;;;;;;;3.03;1.00;;;;;;;17.03;78.97;101503.84;5115401;28;20488;-68
2023/10/05 09:55:18;;;;;;;2.47;0.97;;;;;;;16.99;79.75;101504.81;5115395;28;21021;-68
2023/10/05 09:57:51;;;;;;;2.20;0.70;;;;;;;16.96;79.37;101513.69;5115041;28;20819;-68
2023/10/05 10:00:30;;;;;;;2.60;1.13;;;;;;;16.90;79.83;101511.09;5115425;28;20424;-67
2023/10/05 10:02:58;;;;;;;3.30;0.90;;;;;;;16.82;81.21;101514.66;5115454;28;20431;-67
2023/10/05 10:05:34;;;;;;;3.60;1.30;;;;;;;16.87;79.90;101505.47;5114926;28;20595;-67
2023/10/05 10:08:09;;;;;;;6.97;1.63;;;;;;;16.91;80.20;101509.19;5115118;28;20471;-67
2023/10/05 10:10:40;;;;;;;4.43;1.10;;;;;;;16.92;80.59;101501.78;5115587;28;20477;-67
2023/10/05 10:13:11;;;;;;;5.20;1.47;;;;;;;16.93;80.94;101511.59;5115206;28;20431;-67
2023/10/05 10:15:39;;;;;;;2.50;1.00;;;;;;;16.90;80.60;101527.50;5115394;28;20427;-67
2023/10/05 10:18:14;;;;;;;2.63;0.93;;;;;;;16.94;79.20;101514.00;5115029;28;20449;-67
2023/10/05 10:20:45;;;;;;;3.20;1.03;;;;;;;16.87;79.75;101513.69;5115202;28;20526;-67
2023/10/05 10:23:19;;;;;;;3.80;1.63;;;;;;;16.78;80.84;101516.41;5115188;28;20849;-67
2023/10/05 10:25:49;;;;;;;3.80;1.43;;;;;;;16.80;80.12;101530.56;5115244;28;20420;-67
2023/10/05 10:28:20;;;;;;;3.80;1.03;;;;;;;16.73;80.26;101513.81;5115425;28;20424;-67
2023/10/05 10:31:16;;;;;;;3.50;1.40;;;;;;;16.73;79.51;101526.69;5114771;28;20427;-67
2023/10/05 10:33:43;;;;;;;4.80;1.00;;;;;;;16.71;79.02;101532.47;5115009;28;20416;-67
2023/10/05 10:36:19;;;;;;;3.03;0.93;;;;;;;16.65;81.55;101533.75;5114472;28;20986;-67
2023/10/05 10:38:51;;;;;;;6.20;0.90;;;;;;;16.64;80.40;101543.06;5114509;28;20748;-67
2023/10/05 10:41:21;;;;;;;3.60;1.40;;;;;;;16.69;79.81;101531.16;5114703;28;20865;-67
2023/10/05 10:43:52;;;;;;;3.17;1.37;;;;;;;16.64;81.27;101527.47;5115170;28;20518;-67
2023/10/05 10:46:30;;;;;;;2.60;1.10;;;;;;;16.64;80.96;101540.31;5114538;28;20967;-67
2023/10/05 10:48:58;;;;;;;2.83;0.93;;;;;;;16.65;80.82;101545.50;5114665;28;20459;-67
2023/10/05 10:51:30;;;;;;;2.90;1.10;;;;;;;16.73;80.77;101545.84;5114849;28;20436;-67
2023/10/05 10:54:00;;;;;;;3.03;1.20;;;;;;;16.71;81.48;101548.88;5114641;28;20421;-67
2023/10/05 10:56:34;;;;;;;3.03;1.20;;;;;;;16.68;81.92;101538.56;5114338;28;20459;-67
2023/10/05 11:01:45;;;;;;;3.90;1.00;;;;;;;16.64;82.49;101540.31;5113486;28;20456;-67
2023/10/05 11:04:25;;;;;;;2.70;1.00;;;;;;;16.77;82.07;101535.88;5114253;28;20857;-67
2023/10/05 11:06:56;;;;;;;5.77;1.83;;;;;;;16.72;82.23;101542.31;5114004;28;20463;-67
2023/10/05 11:09:34;;;;;;;3.53;1.10;;;;;;;16.63;83.63;101541.44;5113805;28;20467;-68
2023/10/05 11:12:11;;;;;;;3.10;1.20;;;;;;;16.62;84.38;101534.38;5114436;28;20841;-67
2023/10/05 11:14:41;;;;;;;3.33;1.03;;;;;;;16.53;84.65;101537.09;5114065;28;20416;-68
2023/10/05 11:17:28;;;;;;;5.50;1.67;;;;;;;16.60;84.53;101542.06;5113980;28;20512;-68
2023/10/05 11:19:55;;;;;;;5.70;1.10;;;;;;;16.64;84.45;101560.31;5114053;28;20419;-67
2023/10/05 11:22:25;;;;;;;8.20;1.30;;;;;;;16.61;85.60;101554.66;5113952;28;20619;-67
2023/10/05 11:25:14;;;;;;;3.43;1.40;;;;;;;16.60;86.93;101553.84;5114295;28;20531;-67
2023/10/05 11:27:48;;;;;;;3.10;1.20;;;;;;;16.58;86.33;101567.03;5114060;28;20539;-68
2023/10/05 11:30:18;;;;;;;3.00;1.00;;;;;;;16.43;89.42;101567.47;5113950;28;20966;-68
2023/10/05 11:32:46;;;;;;;2.57;0.90;;;;;;;16.23;91.19;101563.34;5113782;28;20980;-67
2023/10/05 11:35:14;;;;;;;2.30;0.80;;;;;;;15.93;93.25;101556.75;5113617;28;20446;-67
2023/10/05 11:37:44;;;;;;;2.80;1.30;;;;;;;15.79;95.25;101559.59;5114536;28;20893;-70
2023/10/05 11:40:19;;;;;;;4.43;1.20;;;;;;;15.83;95.73;101557.03;5114526;28;20431;-68